Time;durP1;ratioP1;P1;durP2;ratioP2;P2;SDS_P1;SDS_P2;PMS_P1;PMS_P2;Temp;Humidity;BMP_temperature;BMP_pressure;BME280_temperature;BME280_humidity;BME280_pressure;Samples;Min_cycle;Max_cycle;Signal;HPM_P1;HPM_P2
2023/03/01 00:00:46;;;;;;;5.20;0.85;;;-4.30;83.00;;;;;;5041634;28;20446;-78
2023/03/01 00:03:13;;;;;;;4.05;1.15;;;-4.30;83.20;;;;;;5055790;28;20023;-79
2023/03/01 00:05:45;;;;;;;3.70;1.07;;;-4.30;83.10;;;;;;5054122;28;20052;-80
2023/03/01 00:08:11;;;;;;;2.15;0.85;;;-4.30;83.20;;;;;;5055445;28;20277;-79
2023/03/01 00:10:37;;;;;;;0.82;0.70;;;-4.40;83.10;;;;;;5055374;28;20108;-80
2023/03/01 00:13:05;;;;;;;6.30;2.42;;;-4.40;82.90;;;;;;5046495;28;20052;-79
2023/03/01 00:15:31;;;;;;;2.08;1.20;;;-4.40;82.70;;;;;;5063432;28;20032;-79
2023/03/01 00:17:57;;;;;;;2.72;1.17;;;-4.40;82.80;;;;;;5060019;28;20056;-79
2023/03/01 00:20:24;;;;;;;2.55;1.13;;;-4.40;82.90;;;;;;5055306;28;20052;-78
2023/03/01 00:22:49;;;;;;;2.85;0.88;;;-4.40;83.00;;;;;;5054298;28;20031;-80
2023/03/01 00:25:15;;;;;;;1.67;0.88;;;-4.40;83.10;;;;;;5037400;28;20120;-78
2023/03/01 00:27:41;;;;;;;2.83;0.90;;;-4.50;83.20;;;;;;5039686;28;20538;-78
2023/03/01 00:30:08;;;;;;;1.27;0.70;;;-4.50;83.20;;;;;;5054613;28;20029;-78
2023/03/01 00:32:34;;;;;;;1.63;1.05;;;-4.50;83.30;;;;;;5054441;28;20017;-79
2023/03/01 00:35:00;;;;;;;5.00;1.08;;;-4.50;83.50;;;;;;5053637;28;20032;-79
2023/03/01 00:37:25;;;;;;;1.63;0.80;;;-4.50;83.60;;;;;;5054822;28;20112;-79
2023/03/01 00:39:51;;;;;;;2.65;0.65;;;-4.50;83.70;;;;;;5054277;28;20025;-78
2023/03/01 00:42:17;;;;;;;1.25;0.90;;;-4.60;83.70;;;;;;5044514;28;20104;-78
2023/03/01 00:44:43;;;;;;;2.70;1.55;;;-4.60;83.70;;;;;;5049189;28;20100;-80
2023/03/01 00:47:09;;;;;;;4.85;1.30;;;-4.60;83.60;;;;;;5053772;28;20040;-79
2023/03/01 00:49:35;;;;;;;3.65;0.90;;;-4.50;83.50;;;;;;5054238;28;20104;-80
2023/03/01 00:52:01;;;;;;;2.22;1.02;;;-4.50;83.30;;;;;;5065710;28;20037;-80
2023/03/01 00:54:27;;;;;;;1.63;0.88;;;-4.50;83.30;;;;;;5063596;28;20021;-79
2023/03/01 00:56:52;;;;;;;2.60;1.38;;;-4.60;83.30;;;;;;5046647;28;20029;-78
2023/03/01 00:59:18;;;;;;;1.95;1.20;;;-4.60;83.50;;;;;;5054451;28;20039;-79
2023/03/01 01:01:44;;;;;;;2.47;0.75;;;-4.60;83.60;;;;;;5054533;28;20082;-80
2023/03/01 01:04:12;;;;;;;4.20;0.95;;;-4.60;83.70;;;;;;5060021;28;20044;-77
2023/03/01 01:06:43;;;;;;;4.05;2.03;;;-4.60;83.70;;;;;;5054314;28;20021;-78
2023/03/01 01:09:17;;;;;;;4.75;1.00;;;-4.60;83.80;;;;;;5053301;28;20067;-78
2023/03/01 01:11:46;;;;;;;0.95;0.75;;;-4.60;83.90;;;;;;5045395;28;20019;-79
2023/03/01 01:14:11;;;;;;;1.98;0.70;;;-4.60;83.80;;;;;;5044019;28;20045;-79
2023/03/01 01:16:37;;;;;;;1.15;0.70;;;-4.70;84.10;;;;;;5051779;28;20057;-78
2023/03/01 01:19:03;;;;;;;2.35;1.50;;;-4.70;84.20;;;;;;5053080;28;20108;-78
2023/03/01 01:21:29;;;;;;;2.88;0.90;;;-4.70;84.20;;;;;;5029617;28;20021;-79
2023/03/01 01:23:56;;;;;;;1.83;0.70;;;-4.70;84.30;;;;;;5052244;28;20104;-79
2023/03/01 01:26:27;;;;;;;1.60;0.83;;;-4.70;84.70;;;;;;5067790;28;20518;-79
2023/03/01 01:28:53;;;;;;;1.45;1.00;;;-4.80;84.70;;;;;;5051145;28;20029;-78
2023/03/01 01:31:20;;;;;;;2.30;1.08;;;-4.80;84.60;;;;;;5035699;28;20032;-78
2023/03/01 01:33:46;;;;;;;5.13;1.80;;;-4.80;84.60;;;;;;5052394;28;20536;-77
2023/03/01 01:36:12;;;;;;;4.47;0.98;;;-4.80;84.60;;;;;;5054613;28;20414;-79
2023/03/01 01:38:39;;;;;;;0.80;0.55;;;-4.80;84.60;;;;;;5053290;28;20482;-78
2023/03/01 01:41:06;;;;;;;2.22;1.17;;;-4.80;84.60;;;;;;5051917;28;20394;-78
2023/03/01 01:43:38;;;;;;;2.03;1.20;;;-4.80;84.70;;;;;;5052535;28;20013;-77
2023/03/01 01:46:06;;;;;;;1.05;0.80;;;-4.80;84.70;;;;;;5052217;28;20075;-78
2023/03/01 01:48:46;;;;;;;3.47;1.05;;;-4.80;84.70;;;;;;5051306;28;20382;-78
2023/03/01 01:51:19;;;;;;;2.85;1.02;;;-4.80;84.80;;;;;;5053749;28;20064;-79
2023/03/01 01:53:51;;;;;;;5.03;1.23;;;-4.80;84.90;;;;;;5056444;28;20359;-77
2023/03/01 01:56:18;;;;;;;2.45;0.93;;;-4.80;84.90;;;;;;5057123;28;20032;-79
2023/03/01 01:59:02;;;;;;;;;;;-4.70;84.80;;;;;;5039579;28;20017;-79
2023/03/01 02:01:27;;;;;;;2.55;1.05;;;-4.70;84.90;;;;;;5056375;28;19908;-79
2023/03/01 02:03:53;;;;;;;3.58;1.08;;;-4.70;84.60;;;;;;5055549;28;20125;-79
2023/03/01 02:06:32;;;;;;;2.40;1.05;;;-4.60;84.80;;;;;;5055690;28;20112;-80
2023/03/01 02:09:02;;;;;;;2.10;0.80;;;-4.60;84.70;;;;;;5040797;28;20032;-78
2023/03/01 02:11:31;;;;;;;0.98;0.82;;;-4.50;84.80;;;;;;5050890;28;20017;-78
2023/03/01 02:13:57;;;;;;;1.30;0.90;;;-4.60;84.60;;;;;;5037738;28;20048;-79
2023/03/01 02:16:23;;;;;;;1.98;0.90;;;-4.60;84.50;;;;;;5056850;28;20435;-78
2023/03/01 02:18:50;;;;;;;1.25;0.93;;;-4.60;84.60;;;;;;5059940;28;20543;-79
2023/03/01 02:21:22;;;;;;;3.15;1.00;;;-4.60;84.70;;;;;;5069883;28;20108;-78
2023/03/01 02:23:48;;;;;;;2.65;0.77;;;-4.70;84.80;;;;;;5069866;28;20382;-79
2023/03/01 02:26:28;;;;;;;2.97;1.23;;;-4.70;84.80;;;;;;5055984;28;20032;-81
2023/03/01 02:28:54;;;;;;;1.35;0.90;;;-4.70;85.00;;;;;;5038210;28;20017;-80
2023/03/01 02:31:41;;;;;;;1.30;1.13;;;-4.80;85.30;;;;;;5055225;28;20028;-79
2023/03/01 02:34:11;;;;;;;2.53;0.93;;;-4.80;85.50;;;;;;5055462;28;20028;-79
2023/03/01 02:37:11;;;;;;;2.13;1.40;;;-4.80;85.60;;;;;;5039041;28;20040;-80
2023/03/01 02:39:46;;;;;;;1.63;0.80;;;-4.80;85.90;;;;;;5029086;28;20072;-78
2023/03/01 02:42:21;;;;;;;1.80;0.82;;;-4.90;86.00;;;;;;5055015;28;20490;-79
2023/03/01 02:44:49;;;;;;;2.78;1.13;;;-4.90;86.20;;;;;;5055149;28;20032;-79
2023/03/01 02:47:15;;;;;;;1.33;0.63;;;-4.90;86.30;;;;;;5055608;28;20032;-79
2023/03/01 02:49:43;;;;;;;2.53;0.77;;;-4.90;86.40;;;;;;5039793;28;20406;-78
2023/03/01 02:52:27;;;;;;;2.10;0.93;;;-4.90;86.60;;;;;;5055051;28;20092;-79
2023/03/01 02:55:04;;;;;;;3.63;1.05;;;-4.90;86.60;;;;;;5023281;28;20026;-79
2023/03/01 02:57:32;;;;;;;1.30;0.93;;;-5.00;86.60;;;;;;5050536;28;20044;-79
2023/03/01 03:00:07;;;;;;;1.92;1.10;;;-5.00;86.80;;;;;;5056950;28;20024;-80
2023/03/01 03:02:37;;;;;;;5.20;0.93;;;-5.00;87.00;;;;;;5054485;28;20299;-80
2023/03/01 03:05:12;;;;;;;1.85;0.85;;;-5.00;87.20;;;;;;5053426;28;20025;-78
2023/03/01 03:07:41;;;;;;;2.22;0.80;;;-5.00;87.20;;;;;;5042047;28;20389;-79
2023/03/01 03:10:14;;;;;;;6.72;1.38;;;-5.00;87.20;;;;;;5047324;28;20020;-78
2023/03/01 03:12:40;;;;;;;6.55;1.20;;;-5.00;87.30;;;;;;5040655;28;20433;-80
2023/03/01 03:15:09;;;;;;;3.75;1.17;;;-5.00;87.40;;;;;;5054390;28;20443;-77
2023/03/01 03:17:39;;;;;;;2.85;1.20;;;-5.10;87.50;;;;;;5053403;28;20379;-80
2023/03/01 03:20:10;;;;;;;2.80;1.10;;;-5.10;87.80;;;;;;5054755;28;20029;-80
2023/03/01 03:22:37;;;;;;;9.80;1.60;;;-5.10;88.00;;;;;;5055230;28;20501;-79
2023/03/01 03:25:03;;;;;;;1.08;0.65;;;-5.20;88.00;;;;;;5064876;28;20085;-80
2023/03/01 03:27:31;;;;;;;3.50;1.05;;;-5.10;88.20;;;;;;5065184;28;20025;-79
2023/03/01 03:29:57;;;;;;;4.15;1.77;;;-5.20;88.20;;;;;;5055113;28;20043;-79
2023/03/01 03:32:23;;;;;;;5.15;1.25;;;-5.20;88.40;;;;;;5055193;28;20401;-79
2023/03/01 03:34:49;;;;;;;3.10;1.20;;;-5.20;88.50;;;;;;5054682;28;20347;-78
2023/03/01 03:39:59;;;;;;;1.98;1.10;;;-5.20;88.80;;;;;;5041716;28;20044;-79
2023/03/01 03:42:25;;;;;;;5.18;1.40;;;-5.20;88.90;;;;;;5053972;28;20103;-78
2023/03/01 03:44:51;;;;;;;3.15;2.05;;;-5.20;89.10;;;;;;5053692;28;20033;-79
2023/03/01 03:47:17;;;;;;;1.58;0.93;;;-5.30;89.30;;;;;;5056025;28;20095;-79
2023/03/01 03:49:42;;;;;;;1.38;1.00;;;-5.30;89.40;;;;;;5052629;28;20052;-79
2023/03/01 03:52:13;;;;;;;1.25;0.73;;;-5.30;89.60;;;;;;5054185;28;20191;-78
2023/03/01 03:54:40;;;;;;;2.67;1.42;;;-5.30;89.80;;;;;;5054279;28;20418;-77
2023/03/01 03:57:06;;;;;;;9.85;3.50;;;-5.30;89.80;;;;;;5053790;28;20355;-79
2023/03/01 03:59:32;;;;;;;5.47;1.27;;;-5.30;89.70;;;;;;5051774;28;20044;-80
2023/03/01 04:01:58;;;;;;;2.20;1.10;;;-5.30;90.00;;;;;;5054149;28;20024;-79
2023/03/01 04:04:24;;;;;;;1.77;0.85;;;-5.40;89.90;;;;;;5053509;28;20382;-77
2023/03/01 04:06:50;;;;;;;1.48;0.90;;;-5.40;90.00;;;;;;5051006;28;20017;-78
2023/03/01 04:09:16;;;;;;;3.63;1.38;;;-5.40;90.10;;;;;;5055141;28;20463;-80
2023/03/01 04:11:42;;;;;;;3.67;1.92;;;-5.40;90.10;;;;;;5054711;28;20025;-79
2023/03/01 04:14:08;;;;;;;5.88;1.83;;;-5.40;90.10;;;;;;5055675;28;20076;-79
2023/03/01 04:16:33;;;;;;;3.08;1.10;;;-5.40;90.10;;;;;;5060216;28;20037;-80
2023/03/01 04:19:00;;;;;;;2.80;1.60;;;-5.40;90.10;;;;;;5061636;28;20072;-78
2023/03/01 04:21:26;;;;;;;3.38;1.30;;;-5.40;90.20;;;;;;5051973;28;20029;-81
2023/03/01 04:23:52;;;;;;;2.13;1.02;;;-5.40;90.20;;;;;;5052757;28;20108;-79
2023/03/01 04:26:19;;;;;;;1.73;0.90;;;-5.40;90.30;;;;;;5071410;28;20020;-79
2023/03/01 04:28:47;;;;;;;2.92;0.95;;;-5.40;90.30;;;;;;5054694;28;20025;-79
2023/03/01 04:31:18;;;;;;;2.15;1.15;;;-5.40;90.40;;;;;;5052450;28;20067;-79
2023/03/01 04:33:52;;;;;;;4.88;1.15;;;-5.40;90.40;;;;;;5053021;28;20021;-80
2023/03/01 04:36:20;;;;;;;1.85;1.08;;;-5.40;90.50;;;;;;5052717;28;20563;-79
2023/03/01 04:38:47;;;;;;;3.50;1.58;;;-5.40;90.50;;;;;;5045983;28;20386;-78
2023/03/01 04:41:15;;;;;;;2.08;1.05;;;-5.40;90.90;;;;;;5042838;28;20466;-77
2023/03/01 04:43:41;;;;;;;1.95;1.05;;;-5.40;90.60;;;;;;5052655;28;20036;-80
2023/03/01 04:46:09;;;;;;;3.72;1.30;;;-5.40;90.60;;;;;;5042253;28;20478;-77
2023/03/01 04:48:38;;;;;;;1.98;1.27;;;-5.40;90.60;;;;;;5034286;28;20462;-80
2023/03/01 04:51:05;;;;;;;1.63;0.90;;;-5.40;90.60;;;;;;5054028;28;20477;-78
2023/03/01 04:53:36;;;;;;;4.40;1.45;;;-5.40;90.80;;;;;;5056219;28;20017;-79
2023/03/01 04:56:02;;;;;;;0.88;0.70;;;-5.40;90.70;;;;;;5054032;28;20075;-80
2023/03/01 04:58:28;;;;;;;4.82;1.10;;;-5.40;90.70;;;;;;5052897;28;20028;-78
2023/03/01 05:00:55;;;;;;;5.75;1.70;;;-5.30;90.70;;;;;;5056734;28;20032;-79
2023/03/01 05:03:21;;;;;;;2.50;1.02;;;-5.30;90.70;;;;;;5059564;28;20051;-79
2023/03/01 05:05:49;;;;;;;1.58;1.23;;;-5.30;90.70;;;;;;5062111;28;20029;-80
2023/03/01 05:08:18;;;;;;;4.07;1.35;;;-5.30;90.70;;;;;;5060121;28;20025;-80
2023/03/01 05:10:52;;;;;;;3.33;1.35;;;-5.30;90.60;;;;;;5056246;28;20031;-80
2023/03/01 05:13:20;;;;;;;2.75;1.60;;;-5.20;90.60;;;;;;5053186;28;20060;-78
2023/03/01 05:15:57;;;;;;;3.25;1.55;;;-5.20;90.70;;;;;;5052183;28;20077;-79
2023/03/01 05:18:28;;;;;;;5.28;2.22;;;-5.20;90.70;;;;;;5051474;28;20017;-79
2023/03/01 05:20:56;;;;;;;4.43;1.73;;;-5.10;90.70;;;;;;5050102;28;20033;-78
2023/03/01 05:23:22;;;;;;;3.42;1.33;;;-5.10;90.70;;;;;;5033309;28;20021;-78
2023/03/01 05:25:49;;;;;;;4.75;1.50;;;-5.00;90.70;;;;;;5034360;28;20028;-76
2023/03/01 05:28:17;;;;;;;3.65;1.50;;;-4.90;90.50;;;;;;5051343;28;20047;-78
2023/03/01 05:30:43;;;;;;;2.53;1.42;;;-4.90;90.40;;;;;;5050098;28;20113;-78
2023/03/01 05:33:13;;;;;;;2.88;1.77;;;-4.80;90.40;;;;;;5044530;28;20453;-80
2023/03/01 05:35:43;;;;;;;4.50;1.35;;;-4.60;90.60;;;;;;5053061;28;20455;-78
2023/03/01 05:38:15;;;;;;;2.58;1.40;;;-4.50;90.40;;;;;;5048573;28;20017;-78
2023/03/01 05:40:48;;;;;;;8.52;2.42;;;-4.40;90.20;;;;;;5051965;28;20033;-80
2023/03/01 05:43:15;;;;;;;4.03;1.67;;;-4.40;90.10;;;;;;5051752;28;20032;-79
2023/03/01 05:45:42;;;;;;;4.18;1.50;;;-4.30;90.00;;;;;;5040391;28;20398;-80
2023/03/01 05:48:10;;;;;;;3.28;1.27;;;-4.30;89.80;;;;;;5029731;28;20033;-77
2023/03/01 05:50:39;;;;;;;4.30;1.70;;;-4.30;89.00;;;;;;5019797;28;20028;-80
2023/03/01 05:53:12;;;;;;;3.63;1.90;;;-4.30;89.10;;;;;;5040548;28;20033;-80
2023/03/01 05:55:39;;;;;;;3.08;1.63;;;-4.30;89.30;;;;;;5031894;28;20030;-77
2023/03/01 05:58:10;;;;;;;4.27;2.00;;;-4.20;88.90;;;;;;5047897;28;20021;-79
2023/03/01 06:00:37;;;;;;;10.13;3.33;;;-4.20;88.80;;;;;;5044072;28;20033;-77
2023/03/01 06:03:03;;;;;;;5.40;2.15;;;-4.20;88.80;;;;;;5057925;28;20017;-79
2023/03/01 06:05:29;;;;;;;4.43;2.00;;;-4.10;88.30;;;;;;5050269;28;20024;-80
2023/03/01 06:07:58;;;;;;;4.53;1.70;;;-4.10;88.30;;;;;;5034809;28;20021;-80
2023/03/01 06:10:24;;;;;;;4.43;1.70;;;-4.10;88.30;;;;;;5050106;28;20039;-79
2023/03/01 06:12:50;;;;;;;3.63;1.55;;;-4.10;88.50;;;;;;5049527;28;20116;-79
2023/03/01 06:15:16;;;;;;;5.35;2.17;;;-4.00;88.10;;;;;;5036705;28;20025;-81
2023/03/01 06:17:44;;;;;;;2.00;1.40;;;-4.10;88.00;;;;;;5039608;28;20053;-80
2023/03/01 06:20:19;;;;;;;5.22;1.92;;;-4.10;87.50;;;;;;5053232;28;20026;-79
2023/03/01 06:22:46;;;;;;;5.13;2.10;;;-4.00;88.00;;;;;;5065419;28;20022;-81
2023/03/01 06:25:14;;;;;;;4.82;1.65;;;-4.00;88.30;;;;;;5046667;28;20432;-80
2023/03/01 06:27:40;;;;;;;3.90;2.00;;;-3.90;88.00;;;;;;5053433;28;20060;-80
2023/03/01 06:30:07;;;;;;;4.72;2.17;;;-3.90;87.70;;;;;;5055838;28;20051;-81
2023/03/01 06:32:33;;;;;;;9.00;3.45;;;-3.90;87.20;;;;;;5051936;28;20065;-81
2023/03/01 06:34:59;;;;;;;4.78;1.77;;;-3.80;87.90;;;;;;5052882;28;20029;-82
2023/03/01 06:37:26;;;;;;;3.22;1.50;;;-3.70;87.10;;;;;;5055468;28;20447;-80
2023/03/01 06:39:52;;;;;;;4.47;1.83;;;-3.60;86.90;;;;;;5055501;28;20028;-81
2023/03/01 06:42:17;;;;;;;4.57;1.92;;;-3.40;87.10;;;;;;5072575;28;20035;-81
2023/03/01 06:44:45;;;;;;;3.50;2.10;;;-3.30;86.10;;;;;;5056935;28;20028;-81
2023/03/01 06:47:11;;;;;;;4.40;2.05;;;-3.20;86.10;;;;;;5057920;28;20052;-79
2023/03/01 06:49:37;;;;;;;2.95;1.65;;;-3.20;85.60;;;;;;5058190;28;20377;-81
2023/03/01 06:52:06;;;;;;;2.35;1.35;;;-3.10;85.60;;;;;;5059820;28;20021;-80
2023/03/01 06:54:32;;;;;;;2.55;1.52;;;-3.10;85.50;;;;;;5038138;28;20024;-80
2023/03/01 06:56:58;;;;;;;4.60;2.00;;;-3.10;85.30;;;;;;5055896;28;20490;-79
2023/03/01 06:59:24;;;;;;;4.93;2.08;;;-3.20;84.70;;;;;;5056639;28;20461;-78
2023/03/01 07:01:50;;;;;;;4.50;1.60;;;-3.20;84.90;;;;;;5055649;28;20044;-78
2023/03/01 07:04:16;;;;;;;6.35;2.28;;;-3.30;84.80;;;;;;5055760;28;20025;-78
2023/03/01 07:06:42;;;;;;;6.28;2.08;;;-3.40;84.90;;;;;;5057260;28;20496;-78
2023/03/01 07:09:07;;;;;;;2.83;1.58;;;-3.40;85.10;;;;;;5056439;28;20032;-79
2023/03/01 07:11:33;;;;;;;4.07;2.10;;;-3.30;85.30;;;;;;5056351;28;20469;-79
2023/03/01 07:13:59;;;;;;;5.78;2.35;;;-3.20;85.20;;;;;;5056289;28;20037;-79
2023/03/01 07:16:25;;;;;;;6.88;2.10;;;-3.10;84.90;;;;;;5056870;28;20064;-79
2023/03/01 07:18:51;;;;;;;4.28;1.50;;;-3.20;84.80;;;;;;5055572;28;20033;-80
2023/03/01 07:21:17;;;;;;;5.30;2.20;;;-3.20;84.70;;;;;;5062297;28;20039;-80
2023/03/01 07:23:43;;;;;;;5.13;2.80;;;-3.10;84.90;;;;;;5059818;28;20032;-80
2023/03/01 07:26:09;;;;;;;5.63;2.92;;;-3.10;84.90;;;;;;5058225;28;20096;-80
2023/03/01 07:28:38;;;;;;;4.95;2.00;;;-2.90;85.40;;;;;;5051577;28;20364;-80
2023/03/01 07:31:04;;;;;;;11.45;3.03;;;-2.90;84.70;;;;;;5049074;28;20024;-80
2023/03/01 07:33:30;;;;;;;2.40;1.63;;;-3.00;84.50;;;;;;5064407;28;20025;-80
2023/03/01 07:35:59;;;;;;;1.77;1.42;;;-3.10;84.70;;;;;;5060064;28;20041;-79
2023/03/01 07:38:26;;;;;;;9.02;2.20;;;-3.30;85.20;;;;;;5057235;28;20045;-80
2023/03/01 07:40:52;;;;;;;5.63;2.53;;;-3.30;86.00;;;;;;5041882;28;20024;-80
2023/03/01 07:43:18;;;;;;;4.22;1.90;;;-2.90;86.70;;;;;;5055177;28;20021;-81
2023/03/01 07:45:44;;;;;;;5.80;2.05;;;-2.20;85.80;;;;;;5055320;28;20037;-81
2023/03/01 07:48:10;;;;;;;5.72;1.48;;;-1.60;83.20;;;;;;5054068;28;20028;-81
2023/03/01 07:50:36;;;;;;;4.82;1.83;;;-1.40;81.90;;;;;;5055256;28;20505;-81
2023/03/01 07:53:02;;;;;;;6.55;2.05;;;-1.50;81.00;;;;;;5054714;28;20029;-81
2023/03/01 07:55:28;;;;;;;3.38;1.67;;;-1.70;81.40;;;;;;5055878;28;20478;-81
2023/03/01 07:57:54;;;;;;;3.15;1.83;;;-1.80;81.90;;;;;;5055394;28;20028;-80
2023/03/01 08:00:20;;;;;;;4.43;1.75;;;-2.00;82.40;;;;;;5054395;28;20438;-80
2023/03/01 08:02:48;;;;;;;2.85;1.73;;;-2.00;83.30;;;;;;5055119;28;20019;-78
2023/03/01 08:05:14;;;;;;;2.17;1.70;;;-1.90;83.50;;;;;;5054875;28;20020;-80
2023/03/01 08:07:40;;;;;;;5.00;2.40;;;-1.80;83.50;;;;;;5056000;28;20398;-79
2023/03/01 08:10:06;;;;;;;4.03;2.22;;;-1.60;83.00;;;;;;5054923;28;20036;-79
2023/03/01 08:12:32;;;;;;;5.82;3.17;;;-1.40;82.20;;;;;;5056152;28;20428;-81
2023/03/01 08:14:58;;;;;;;2.25;2.00;;;-1.40;81.80;;;;;;5055585;28;20102;-79
2023/03/01 08:17:24;;;;;;;3.88;2.10;;;-1.30;82.00;;;;;;5048073;28;20464;-80
2023/03/01 08:19:50;;;;;;;4.82;3.03;;;-0.90;81.60;;;;;;5057048;28;20041;-80
2023/03/01 08:22:15;;;;;;;6.13;2.40;;;0.00;81.70;;;;;;5066863;28;20033;-81
2023/03/01 08:24:41;;;;;;;4.25;1.95;;;0.70;77.70;;;;;;5061247;28;20021;-81
2023/03/01 08:27:07;;;;;;;4.93;2.67;;;1.40;76.00;;;;;;5060850;28;20020;-79
2023/03/01 08:29:34;;;;;;;6.55;2.97;;;2.60;73.30;;;;;;5059602;28;20013;-82
2023/03/01 08:32:00;;;;;;;4.95;2.40;;;3.50;69.90;;;;;;5062993;28;20025;-81
2023/03/01 08:34:26;;;;;;;3.70;2.40;;;4.40;66.10;;;;;;5066310;28;20052;-80
2023/03/01 08:36:52;;;;;;;4.70;2.20;;;4.90;62.30;;;;;;5056923;28;20033;-80
2023/03/01 08:39:20;;;;;;;4.72;1.90;;;5.10;61.50;;;;;;5054245;28;20025;-80
2023/03/01 08:41:46;;;;;;;4.32;2.30;;;5.50;60.70;;;;;;5055247;28;20760;-80
2023/03/01 08:44:16;;;;;;;5.10;2.40;;;6.30;59.70;;;;;;5053740;28;20162;-81
2023/03/01 08:46:43;;;;;;;8.68;2.42;;;7.00;57.70;;;;;;5053659;28;20043;-81
2023/03/01 08:49:14;;;;;;;6.23;2.33;;;7.30;54.60;;;;;;5053245;28;20032;-79
2023/03/01 08:51:41;;;;;;;6.47;2.70;;;7.20;54.10;;;;;;5052834;28;20029;-81
2023/03/01 08:54:11;;;;;;;3.28;1.80;;;7.20;53.00;;;;;;5054106;28;20028;-80
2023/03/01 08:56:37;;;;;;;4.28;2.13;;;6.90;52.40;;;;;;5053588;28;20032;-82
2023/03/01 08:59:04;;;;;;;5.03;2.33;;;6.30;52.70;;;;;;5053245;28;20513;-79
2023/03/01 09:01:29;;;;;;;3.53;1.70;;;5.80;53.30;;;;;;5048831;28;20128;-81
2023/03/01 09:03:55;;;;;;;5.35;2.90;;;6.10;54.60;;;;;;5053604;28;20141;-81
2023/03/01 09:06:21;;;;;;;4.57;1.88;;;6.60;53.40;;;;;;5054594;28;20044;-81
2023/03/01 09:08:49;;;;;;;6.45;2.47;;;6.90;52.10;;;;;;5052608;28;20028;-80
2023/03/01 09:11:19;;;;;;;3.70;2.13;;;6.90;51.90;;;;;;5054365;28;20028;-80
2023/03/01 09:13:47;;;;;;;3.03;1.80;;;7.30;51.60;;;;;;5045780;28;20048;-80
2023/03/01 09:16:15;;;;;;;3.95;1.77;;;7.40;50.20;;;;;;5015848;28;20025;-82
2023/03/01 09:18:44;;;;;;;2.90;1.58;;;6.80;50.30;;;;;;5033882;28;20025;-81
2023/03/01 09:21:15;;;;;;;4.60;1.80;;;6.50;52.00;;;;;;5018357;28;20037;-79
2023/03/01 09:23:45;;;;;;;3.95;2.13;;;6.90;51.30;;;;;;5035353;28;20255;-81
2023/03/01 09:26:21;;;;;;;4.40;2.13;;;6.50;50.60;;;;;;5034003;28;20057;-78
2023/03/01 09:28:48;;;;;;;5.13;2.10;;;6.10;51.80;;;;;;5031851;28;20030;-79
2023/03/01 09:31:15;;;;;;;4.50;1.95;;;6.30;52.30;;;;;;5033677;28;20112;-80
2023/03/01 09:33:42;;;;;;;4.77;1.67;;;6.80;51.20;;;;;;5033778;28;20110;-79
2023/03/01 09:36:18;;;;;;;5.63;1.73;;;6.90;49.80;;;;;;5033235;28;20014;-81
2023/03/01 09:38:44;;;;;;;6.53;2.05;;;7.10;50.20;;;;;;5033569;28;20052;-80
2023/03/01 09:41:49;;;;;;;3.97;2.15;;;7.30;49.40;;;;;;5015628;28;20537;-78
2023/03/01 09:44:40;;;;;;;3.65;2.08;;;7.60;49.70;;;;;;5016993;28;20099;-81
2023/03/01 09:47:16;;;;;;;2.28;1.80;;;8.00;48.20;;;;;;5032426;28;20084;-80
2023/03/01 09:49:48;;;;;;;5.55;2.33;;;8.00;48.00;;;;;;5037617;28;20048;-79
2023/03/01 09:52:38;;;;;;;5.28;2.00;;;8.70;47.10;;;;;;5036313;28;20029;-79
2023/03/01 09:55:13;;;;;;;5.75;2.22;;;9.30;47.00;;;;;;5015659;28;20088;-81
2023/03/01 09:57:44;;;;;;;5.57;1.58;;;9.80;46.60;;;;;;5033634;28;20021;-81
2023/03/01 10:00:23;;;;;;;4.60;2.10;;;10.40;44.80;;;;;;5032011;28;20487;-80
2023/03/01 10:03:02;;;;;;;5.63;1.67;;;10.40;44.50;;;;;;5032996;28;20032;-80
2023/03/01 10:05:49;;;;;;;5.88;2.22;;;10.50;44.10;;;;;;5017962;28;20048;-81
2023/03/01 10:08:41;;;;;;;2.88;1.67;;;10.10;43.50;;;;;;5017451;28;20021;-80
2023/03/01 10:11:20;;;;;;;5.68;1.25;;;7.80;44.30;;;;;;5022090;28;20113;-80
2023/03/01 10:14:03;;;;;;;3.92;1.73;;;5.60;47.70;;;;;;5027166;28;20057;-81
2023/03/01 10:16:32;;;;;;;3.60;1.67;;;4.80;51.30;;;;;;5037966;28;20040;-82
2023/03/01 10:19:05;;;;;;;3.58;1.98;;;4.40;52.50;;;;;;5057141;28;20088;-81
2023/03/01 10:21:41;;;;;;;4.80;1.67;;;3.80;52.90;;;;;;5057757;28;20028;-81
2023/03/01 10:24:16;;;;;;;7.00;2.05;;;3.60;54.30;;;;;;5056721;28;20025;-81
2023/03/01 10:26:51;;;;;;;2.42;1.48;;;3.00;55.30;;;;;;5056771;28;20102;-80
2023/03/01 10:29:18;;;;;;;3.47;1.50;;;2.20;56.50;;;;;;5056667;28;20021;-81
2023/03/01 10:31:46;;;;;;;2.38;1.40;;;1.40;58.30;;;;;;5057063;28;20021;-81
2023/03/01 10:34:18;;;;;;;2.92;1.38;;;1.00;59.80;;;;;;5055922;28;20075;-81
2023/03/01 10:36:48;;;;;;;3.05;1.40;;;0.70;61.20;;;;;;5039684;28;20017;-81
2023/03/01 10:39:19;;;;;;;2.50;1.23;;;0.30;62.50;;;;;;5057486;28;20013;-81
2023/03/01 10:41:58;;;;;;;3.75;1.13;;;0.10;63.60;;;;;;5054373;28;20029;-81
2023/03/01 10:44:42;;;;;;;3.38;1.45;;;-0.20;64.40;;;;;;5057951;28;20017;-81
2023/03/01 10:47:20;;;;;;;6.60;1.77;;;-0.50;64.70;;;;;;5068022;28;20033;-80
2023/03/01 10:50:00;;;;;;;4.55;1.40;;;-0.60;65.80;;;;;;5063908;28;20067;-80
2023/03/01 10:52:35;;;;;;;4.72;1.42;;;-0.60;66.50;;;;;;5038437;28;20138;-82
2023/03/01 10:55:09;;;;;;;3.63;1.60;;;-0.40;67.10;;;;;;5055497;28;20033;-81
2023/03/01 10:57:38;;;;;;;2.78;1.65;;;-0.20;66.50;;;;;;5055442;28;20025;-81
2023/03/01 11:00:23;;;;;;;6.10;1.83;;;-0.10;66.20;;;;;;5057240;28;20021;-79
2023/03/01 11:03:13;;;;;;;3.70;1.30;;;0.00;66.10;;;;;;5040385;28;20028;-81
2023/03/01 11:06:01;;;;;;;5.28;1.90;;;0.00;66.10;;;;;;5058564;28;20486;-81
2023/03/01 11:08:32;;;;;;;4.05;1.73;;;-0.10;66.20;;;;;;5069857;28;20025;-80
2023/03/01 11:11:05;;;;;;;4.45;2.17;;;-0.10;66.00;;;;;;5042462;28;20025;-81
2023/03/01 11:13:31;;;;;;;2.28;1.33;;;-0.10;67.00;;;;;;5055995;28;20149;-80
2023/03/01 11:16:22;;;;;;;4.18;1.65;;;0.10;66.70;;;;;;5054837;28;20032;-80
2023/03/01 11:19:00;;;;;;;8.73;2.10;;;0.10;66.50;;;;;;5055117;28;20021;-81
2023/03/01 11:21:28;;;;;;;6.43;2.05;;;0.20;67.20;;;;;;5052262;28;20028;-81
2023/03/01 11:23:54;;;;;;;4.90;1.33;;;0.40;66.60;;;;;;5053910;28;20115;-79
2023/03/01 11:26:21;;;;;;;3.65;1.73;;;0.40;66.20;;;;;;5058312;28;20029;-81
2023/03/01 11:28:53;;;;;;;3.15;1.55;;;0.50;65.70;;;;;;5058938;28;20029;-80
2023/03/01 11:31:20;;;;;;;4.47;1.95;;;0.50;65.80;;;;;;5056669;28;20131;-82
2023/03/01 11:33:57;;;;;;;3.83;1.63;;;0.60;65.80;;;;;;5056073;28;20024;-80
2023/03/01 11:36:32;;;;;;;;;;;0.50;65.20;;;;;;5055532;28;20269;-81
2023/03/01 11:39:17;;;;;;;2.83;1.60;;;0.20;64.60;;;;;;5059036;28;19904;-80
2023/03/01 11:41:47;;;;;;;3.63;1.70;;;0.00;65.20;;;;;;5042389;28;20019;-80
2023/03/01 11:44:24;;;;;;;1.98;1.05;;;0.00;66.10;;;;;;5055272;28;20032;-80
2023/03/01 11:47:13;;;;;;;4.10;1.92;;;0.10;66.60;;;;;;5044030;28;20033;-79
2023/03/01 11:49:48;;;;;;;2.53;1.30;;;0.30;66.70;;;;;;5053997;28;20029;-80
2023/03/01 11:52:14;;;;;;;4.22;1.40;;;0.30;66.30;;;;;;5053164;28;20021;-80
2023/03/01 11:55:03;;;;;;;3.78;1.73;;;0.20;66.40;;;;;;5051998;28;20086;-80
2023/03/01 11:57:38;;;;;;;4.07;1.40;;;0.30;66.70;;;;;;5044645;28;20025;-81
2023/03/01 12:00:38;;;;;;;5.78;1.67;;;0.40;66.20;;;;;;5053252;28;20031;-81
2023/03/01 12:03:26;;;;;;;3.40;1.42;;;0.30;66.00;;;;;;5045587;28;20033;-80
2023/03/01 12:06:43;;;;;;;3.13;1.55;;;0.30;65.70;;;;;;5053996;28;20041;-80
2023/03/01 12:09:21;;;;;;;2.90;0.95;;;0.10;65.70;;;;;;5002521;28;20041;-81
2023/03/01 12:12:02;;;;;;;4.28;1.60;;;-0.10;65.90;;;;;;5053641;28;20033;-81
2023/03/01 12:14:59;;;;;;;2.55;1.15;;;-0.20;66.30;;;;;;4995091;28;1344441;-81
2023/03/01 12:17:55;;;;;;;2.85;1.27;;;-0.10;66.40;;;;;;5053250;28;20025;-79
2023/03/01 12:20:55;;;;;;;4.65;1.77;;;-0.10;65.90;;;;;;5038398;28;20147;-81
2023/03/01 12:23:33;;;;;;;3.35;1.30;;;-0.10;66.00;;;;;;5044560;28;20604;-80
2023/03/01 12:26:14;;;;;;;2.72;1.38;;;-0.10;66.10;;;;;;5053967;28;20036;-80
2023/03/01 12:29:01;;;;;;;4.18;1.63;;;0.00;66.80;;;;;;5054253;28;20085;-80
2023/03/01 12:31:48;;;;;;;2.10;1.08;;;0.20;67.30;;;;;;5040997;28;20101;-82
2023/03/01 12:34:29;;;;;;;2.10;1.17;;;0.30;67.10;;;;;;5052644;28;20136;-81
2023/03/01 12:37:19;;;;;;;3.28;1.88;;;0.20;67.00;;;;;;5055598;28;20063;-81
2023/03/01 12:40:12;;;;;;;2.92;1.10;;;0.10;67.40;;;;;;5056311;28;20021;-80
2023/03/01 12:42:51;;;;;;;4.07;1.30;;;0.10;67.40;;;;;;5055468;28;20021;-80
2023/03/01 12:45:41;;;;;;;3.72;1.75;;;0.00;66.50;;;;;;5058998;28;20031;-81
2023/03/01 12:48:27;;;;;;;2.15;1.35;;;0.00;66.30;;;;;;5054686;28;20121;-80
2023/03/01 12:50:57;;;;;;;1.85;1.15;;;-0.10;66.90;;;;;;5049269;28;20025;-79
2023/03/01 12:53:30;;;;;;;2.65;0.80;;;0.00;67.10;;;;;;5054722;28;20433;-81
2023/03/01 12:56:13;;;;;;;1.35;1.13;;;0.00;67.40;;;;;;5035993;28;20103;-81
2023/03/01 12:58:49;;;;;;;4.10;1.20;;;-0.10;66.70;;;;;;5053474;28;20024;-82
2023/03/01 13:01:21;;;;;;;2.67;1.50;;;-0.20;66.40;;;;;;5051789;28;20021;-81
2023/03/01 13:03:56;;;;;;;1.70;1.60;;;-0.20;66.60;;;;;;5053217;28;20082;-79
2023/03/01 13:07:06;;;;;;;2.95;1.25;;;-0.30;66.70;;;;;;5052309;28;20056;-82
2023/03/01 13:10:07;;;;;;;4.00;2.45;;;-0.40;67.10;;;;;;5018871;28;20037;-80
2023/03/01 13:12:46;;;;;;;3.47;1.55;;;-0.30;67.00;;;;;;4963119;28;20031;-82